createdAt,value
2019-05-20T04:00:44.398Z,58.03
2019-05-20T04:02:44.305Z,57.62
2019-05-20T04:05:00.620Z,58.03
2019-05-20T04:06:45.281Z,58.40
2019-05-20T04:08:44.243Z,58.40
2019-05-20T04:10:44.266Z,58.40
2019-05-20T04:12:44.206Z,58.48
2019-05-20T04:14:44.199Z,57.97
2019-05-20T04:16:44.177Z,57.97
2019-05-20T04:18:44.153Z,58.15
2019-05-20T04:20:44.134Z,57.64
2019-05-20T04:22:44.085Z,57.64
2019-05-20T04:24:44.075Z,57.54
2019-05-20T04:26:44.078Z,57.54
2019-05-20T04:28:44.088Z,57.84
2019-05-20T04:30:44.020Z,57.71
2019-05-20T04:32:44.021Z,57.92
2019-05-20T04:34:44.001Z,57.61
2019-05-20T04:36:43.940Z,57.61
2019-05-20T04:38:43.961Z,57.71
2019-05-20T04:40:43.926Z,57.92
2019-05-20T04:42:43.879Z,57.71
2019-05-20T04:44:43.872Z,57.71
2019-05-20T04:46:43.860Z,57.61
2019-05-20T04:48:43.821Z,58.20
2019-05-20T04:50:43.783Z,57.68
2019-05-20T04:52:43.878Z,57.89
2019-05-20T04:54:43.760Z,57.89
2019-05-20T04:56:43.742Z,57.99
2019-05-20T04:58:43.744Z,57.79
2019-05-20T05:00:43.787Z,57.18
2019-05-20T05:02:44.049Z,56.85
2019-05-20T05:04:43.651Z,56.65
2019-05-20T05:06:43.615Z,57.15
2019-05-20T05:08:43.686Z,56.95
2019-05-20T05:10:43.576Z,56.85
2019-05-20T05:12:43.587Z,57.12
2019-05-20T05:14:43.547Z,57.03
2019-05-20T05:16:43.551Z,57.03
2019-05-20T05:18:43.479Z,57.03
2019-05-20T05:20:43.485Z,56.82
2019-05-20T05:22:43.439Z,57.23
2019-05-20T05:24:43.470Z,56.92
2019-05-20T05:26:43.417Z,56.82
2019-05-20T05:28:43.373Z,56.72
2019-05-20T05:30:43.368Z,56.62
2019-05-20T05:32:44.367Z,56.82
2019-05-20T05:34:43.318Z,56.72
2019-05-20T05:36:43.303Z,56.70
2019-05-20T05:38:43.293Z,56.90
2019-05-20T05:40:43.339Z,56.79
2019-05-20T05:42:43.244Z,57.10
2019-05-20T05:44:43.223Z,56.79
2019-05-20T05:46:43.184Z,56.59
2019-05-20T05:48:43.213Z,55.96
2019-05-20T05:50:43.140Z,55.85
2019-05-20T05:52:43.128Z,56.54
2019-05-20T05:54:43.097Z,56.54
2019-05-20T05:56:43.130Z,56.44
2019-05-20T05:58:43.068Z,56.74
2019-05-20T06:00:43.028Z,56.03
2019-05-20T06:02:43.011Z,56.64
2019-05-20T06:04:43.136Z,56.13
2019-05-20T06:06:42.998Z,56.23
2019-05-20T06:08:42.969Z,56.54
2019-05-20T06:10:42.949Z,56.03
2019-05-20T06:12:42.973Z,56.34
2019-05-20T06:14:42.889Z,56.34
2019-05-20T06:16:42.866Z,56.23
2019-05-20T06:18:42.835Z,56.51
2019-05-20T06:20:42.832Z,56.51
2019-05-20T06:22:42.793Z,56.10
2019-05-20T06:24:42.769Z,56.51
2019-05-20T06:26:42.760Z,56.41
2019-05-20T06:28:42.793Z,56.71
2019-05-20T06:30:42.722Z,56.10
2019-05-20T06:32:42.715Z,56.41
2019-05-20T06:34:43.225Z,56.61
2019-05-20T06:36:42.800Z,56.31
2019-05-20T06:38:42.633Z,56.21
2019-05-20T06:40:42.649Z,56.51
2019-05-20T06:42:42.587Z,56.10
2019-05-20T06:44:52.266Z,56.10
2019-05-20T06:46:43.595Z,56.31
2019-05-20T06:48:42.542Z,55.98
2019-05-20T06:50:42.488Z,56.28
2019-05-20T06:52:42.495Z,56.28
2019-05-20T06:54:42.457Z,55.98
2019-05-20T06:56:42.609Z,55.37
2019-05-20T06:58:42.403Z,56.05
2019-05-20T07:00:42.392Z,55.65
2019-05-20T07:02:42.375Z,55.15
2019-05-20T07:04:42.347Z,55.35
2019-05-20T07:06:46.667Z,55.04
2019-05-20T07:08:43.292Z,55.35
2019-05-20T07:10:42.284Z,55.62
2019-05-20T07:12:42.294Z,55.24
2019-05-20T07:14:42.326Z,55.11
2019-05-20T07:16:42.211Z,55.11
2019-05-20T07:18:42.296Z,55.32
2019-05-20T07:20:42.193Z,55.32
2019-05-20T07:22:55.408Z,55.15
2019-05-20T07:24:43.144Z,55.95
2019-05-20T07:26:42.124Z,55.35
2019-05-20T07:28:42.094Z,56.02
2019-05-20T07:30:42.053Z,55.55
2019-05-20T07:32:42.029Z,56.05
2019-05-20T07:34:42.110Z,54.94
2019-05-20T07:36:42.018Z,54.94
2019-05-20T07:38:42.005Z,55.24
2019-05-20T07:40:41.947Z,54.74
2019-05-20T07:42:42.009Z,54.91
2019-05-20T07:44:41.914Z,55.32
2019-05-20T07:46:41.885Z,55.22
2019-05-20T07:48:41.879Z,55.19
2019-05-20T07:50:41.885Z,54.89
2019-05-20T07:52:41.814Z,54.76
2019-05-20T07:54:41.817Z,54.25
2019-05-20T07:56:41.781Z,54.23
2019-05-20T07:58:41.869Z,54.33
2019-05-20T08:00:41.792Z,54.23
2019-05-20T08:02:41.736Z,53.63
2019-05-20T08:04:41.697Z,53.63
2019-05-20T08:06:41.788Z,54.31
2019-05-20T08:08:41.677Z,54.23
2019-05-20T08:10:41.644Z,54.41
2019-05-20T08:12:41.613Z,54.21
2019-05-20T08:14:41.594Z,54.41
2019-05-20T08:16:41.566Z,54.00
2019-05-20T08:18:41.548Z,53.88
2019-05-20T08:20:41.528Z,53.80
2019-05-20T08:22:41.533Z,53.78
2019-05-20T08:24:41.500Z,53.98
2019-05-20T08:26:41.448Z,53.78
2019-05-20T08:28:41.467Z,54.28
2019-05-20T08:30:41.414Z,54.21
2019-05-20T08:32:41.428Z,54.41
2019-05-20T08:34:41.420Z,54.28
2019-05-20T08:36:41.353Z,54.68
2019-05-20T08:38:41.322Z,54.31
2019-05-20T08:40:41.330Z,54.51
2019-05-20T08:42:41.345Z,54.41
2019-05-20T08:44:41.298Z,54.08
2019-05-20T08:46:41.272Z,54.58
2019-05-20T08:48:41.291Z,54.71
2019-05-20T08:50:41.237Z,54.31
2019-05-20T08:52:41.205Z,54.51
2019-05-20T08:54:41.166Z,54.81
2019-05-20T08:56:41.127Z,54.68
2019-05-20T08:58:41.228Z,54.71
2019-05-20T09:00:41.111Z,54.41
2019-05-20T09:02:41.105Z,54.71
2019-05-20T09:04:41.037Z,54.28
2019-05-20T09:06:41.095Z,53.88
2019-05-20T09:08:41.058Z,53.47
2019-05-20T09:10:40.979Z,53.67
2019-05-20T09:12:40.963Z,54.28
2019-05-20T09:14:40.964Z,54.18
2019-05-20T09:16:40.913Z,53.85
2019-05-20T09:18:40.917Z,53.75
2019-05-20T09:20:40.941Z,53.65
2019-05-20T09:22:40.908Z,54.13
2019-05-20T09:24:40.949Z,54.05
2019-05-20T09:26:40.808Z,53.22
2019-05-20T09:28:40.795Z,53.92
2019-05-20T09:30:40.779Z,53.83
2019-05-20T09:32:42.948Z,54.43
2019-05-20T09:34:40.729Z,54.23
2019-05-20T09:36:40.711Z,53.63
2019-05-20T09:38:40.687Z,53.30
2019-05-20T09:40:40.710Z,53.20
2019-05-20T09:42:41.284Z,53.00
2019-05-20T09:44:40.636Z,53.60
2019-05-20T09:46:40.624Z,53.67
2019-05-20T09:48:40.565Z,53.38
2019-05-20T09:50:40.623Z,52.84
2019-05-20T09:52:40.554Z,52.74
2019-05-20T09:54:40.521Z,52.54
2019-05-20T09:56:40.484Z,52.24
2019-05-20T09:58:40.547Z,52.84
2019-05-20T10:00:40.450Z,53.05
2019-05-20T10:02:40.425Z,53.05
2019-05-20T10:04:40.397Z,53.12
2019-05-20T10:06:40.399Z,53.12
2019-05-20T10:08:44.798Z,52.59
2019-05-20T10:10:40.326Z,52.39
2019-05-20T10:12:46.557Z,52.19
2019-05-20T10:14:41.305Z,52.69
2019-05-20T10:16:40.260Z,52.80
2019-05-20T10:18:40.256Z,52.80
2019-05-20T10:20:40.278Z,53.00
2019-05-20T10:22:40.195Z,52.29
2019-05-20T10:24:40.179Z,52.82
2019-05-20T10:26:40.260Z,53.92
2019-05-20T10:28:41.865Z,53.72
2019-05-20T10:30:40.130Z,53.22
2019-05-20T10:32:40.099Z,52.62
2019-05-20T10:34:40.123Z,52.49
2019-05-20T10:36:40.067Z,52.80
2019-05-20T10:38:56.926Z,52.26
2019-05-20T10:40:41.087Z,52.57
2019-05-20T10:42:40.010Z,52.57
2019-05-20T10:44:41.973Z,52.47
2019-05-20T10:46:39.943Z,52.34
2019-05-20T10:48:39.999Z,52.57
2019-05-20T10:50:39.910Z,52.04
2019-05-20T10:52:39.915Z,52.67
2019-05-20T10:54:39.883Z,52.80
2019-05-20T10:56:39.838Z,53.09
2019-05-20T10:58:39.813Z,53.22
2019-05-20T11:00:39.797Z,54.15
2019-05-20T11:02:39.845Z,53.45
2019-05-20T11:04:39.779Z,53.75
2019-05-20T11:06:39.755Z,53.78
2019-05-20T11:08:39.699Z,53.38
2019-05-20T11:10:39.771Z,53.67
2019-05-20T11:12:39.683Z,53.47
2019-05-20T11:14:39.654Z,53.88
2019-05-20T11:16:39.627Z,53.78
2019-05-20T11:18:39.685Z,54.08
2019-05-20T11:20:39.586Z,54.08
2019-05-20T11:22:39.567Z,54.58
2019-05-20T11:24:39.536Z,54.58
2019-05-20T11:26:39.584Z,53.58
2019-05-20T11:28:39.529Z,53.38
2019-05-20T11:30:39.468Z,53.65
2019-05-20T11:32:39.456Z,53.67
2019-05-20T11:34:39.473Z,53.58
2019-05-20T11:36:39.417Z,53.85
2019-05-20T11:38:39.406Z,53.65
2019-05-20T11:40:39.358Z,54.15
2019-05-20T11:42:39.390Z,53.47
2019-05-20T11:44:39.331Z,53.88
2019-05-20T11:46:39.309Z,53.98
2019-05-20T11:48:39.283Z,54.28
2019-05-20T11:50:39.299Z,54.48
2019-05-20T11:52:39.254Z,54.30
2019-05-20T11:54:39.262Z,54.50
2019-05-20T11:56:39.186Z,54.61
2019-05-20T11:58:39.225Z,54.50
2019-05-20T12:00:39.143Z,54.63
2019-05-20T12:02:39.184Z,54.94
2019-05-20T12:04:39.117Z,55.14
2019-05-20T12:06:39.094Z,54.94
2019-05-20T12:08:39.064Z,54.94
2019-05-20T12:10:39.075Z,55.06
2019-05-20T12:12:39.048Z,55.16
2019-05-20T12:14:39.011Z,55.16
2019-05-20T12:16:38.973Z,55.26
2019-05-20T12:18:38.994Z,54.96
2019-05-20T12:20:38.953Z,55.16
2019-05-20T12:22:39.009Z,55.49
2019-05-20T12:24:38.882Z,55.26
2019-05-20T12:26:38.979Z,55.06
2019-05-20T12:28:38.885Z,54.76
2019-05-20T12:30:38.857Z,55.16
2019-05-20T12:32:38.833Z,54.96
2019-05-20T12:34:38.815Z,54.94
2019-05-20T12:36:38.758Z,54.33
2019-05-20T12:38:38.813Z,54.73
2019-05-20T12:40:38.733Z,54.13
2019-05-20T12:42:38.737Z,53.70
2019-05-20T12:44:38.673Z,53.70
2019-05-20T12:46:38.714Z,53.67
2019-05-20T12:48:38.648Z,54.08
2019-05-20T12:50:38.611Z,54.38
2019-05-20T12:52:38.610Z,54.38
2019-05-20T12:54:38.647Z,54.08
2019-05-20T12:56:38.547Z,53.67
2019-05-20T12:58:38.574Z,53.88
2019-05-20T13:00:38.546Z,53.98
2019-05-20T13:02:38.493Z,53.88
2019-05-20T13:04:38.462Z,53.98
2019-05-20T13:06:38.451Z,53.67
2019-05-20T13:08:38.410Z,54.05
2019-05-20T13:10:38.405Z,53.85
2019-05-20T13:12:38.403Z,53.55
2019-05-20T13:14:38.361Z,53.02
2019-05-20T13:16:38.336Z,52.59
2019-05-20T13:18:38.315Z,52.59
2019-05-20T13:20:38.306Z,53.27
2019-05-20T13:22:38.266Z,52.24
2019-05-20T13:24:38.289Z,52.34
2019-05-20T13:26:38.232Z,51.92
2019-05-20T13:28:38.206Z,52.12
2019-05-20T13:30:38.417Z,52.09
2019-05-20T13:32:38.155Z,51.99
2019-05-20T13:34:38.148Z,52.19
2019-05-20T13:36:38.147Z,51.39
2019-05-20T13:38:38.101Z,51.97
2019-05-20T13:40:46.590Z,51.97
2019-05-20T13:42:39.078Z,52.49
2019-05-20T13:44:38.023Z,52.80
2019-05-20T13:46:38.070Z,53.00
2019-05-20T13:48:38.031Z,52.62
2019-05-20T13:50:37.955Z,53.22
2019-05-20T13:52:37.985Z,53.34
2019-05-20T13:54:37.939Z,53.65
2019-05-20T13:56:37.951Z,53.14
2019-05-20T13:58:37.876Z,53.14
2019-05-20T14:00:37.906Z,53.34
2019-05-20T14:02:37.886Z,53.45
2019-05-20T14:04:37.817Z,53.55
2019-05-20T14:06:37.840Z,53.97
2019-05-20T14:08:37.777Z,53.07
2019-05-20T14:10:37.811Z,53.57
2019-05-20T14:12:37.723Z,53.97
2019-05-20T14:14:37.713Z,54.40
2019-05-20T14:16:37.751Z,55.00
2019-05-20T14:18:37.667Z,54.73
2019-05-20T14:20:37.656Z,54.93
2019-05-20T14:22:37.619Z,54.93
2019-05-20T14:24:37.648Z,54.86
2019-05-20T14:26:37.589Z,54.96
2019-05-20T14:28:37.571Z,54.86
2019-05-20T14:30:37.533Z,54.86
2019-05-20T14:32:37.503Z,54.58
2019-05-20T14:34:37.556Z,54.79
2019-05-20T14:36:40.011Z,54.96
2019-05-20T14:38:37.448Z,54.88
2019-05-20T14:40:37.442Z,54.75
2019-05-20T14:42:37.439Z,54.75
2019-05-20T14:44:37.382Z,54.86
2019-05-20T14:46:37.452Z,54.86
2019-05-20T14:48:37.415Z,54.66
2019-05-20T14:50:37.336Z,55.06
2019-05-20T14:52:37.301Z,55.06
2019-05-20T14:54:37.355Z,54.55
2019-05-20T14:56:37.340Z,54.55
2019-05-20T14:58:37.236Z,54.86
2019-05-20T15:00:37.201Z,54.96
2019-05-20T15:02:37.251Z,54.66
2019-05-20T15:04:37.193Z,54.96
2019-05-20T15:06:37.175Z,54.55
2019-05-20T15:08:37.117Z,54.88
2019-05-20T15:10:37.117Z,55.39
2019-05-20T15:12:37.076Z,55.89
2019-05-20T15:14:37.115Z,55.49
2019-05-20T15:16:37.028Z,55.82
2019-05-20T15:18:37.060Z,55.51
2019-05-20T15:20:37.030Z,55.62
2019-05-20T15:22:36.963Z,55.82
2019-05-20T15:24:36.965Z,55.51
2019-05-20T15:26:37.013Z,55.51
2019-05-20T15:28:36.916Z,55.82
2019-05-20T15:30:36.892Z,55.82
2019-05-20T15:32:36.936Z,55.74
2019-05-20T15:34:36.835Z,56.12
2019-05-20T15:36:36.836Z,56.15
2019-05-20T15:38:36.833Z,56.15
2019-05-20T15:40:36.788Z,56.15
2019-05-20T15:42:36.829Z,55.94
2019-05-20T15:44:36.731Z,56.04
2019-05-20T15:46:36.731Z,55.94
2019-05-20T15:48:36.702Z,56.15
2019-05-20T15:50:36.662Z,56.15
2019-05-20T15:52:37.181Z,56.15
2019-05-20T15:54:36.658Z,56.45
2019-05-20T15:56:36.619Z,55.84
2019-05-20T15:58:36.579Z,55.62
2019-05-20T16:00:36.615Z,55.31
2019-05-20T16:02:36.548Z,55.91
2019-05-20T16:04:36.571Z,55.41
2019-05-20T16:06:36.496Z,55.71
2019-05-20T16:08:36.486Z,55.82
2019-05-20T16:10:36.486Z,56.42
2019-05-20T16:12:36.564Z,56.02
2019-05-20T16:14:36.420Z,55.54
2019-05-20T16:16:36.420Z,56.24
2019-05-20T16:18:36.387Z,56.04
2019-05-20T16:20:36.381Z,55.94
2019-05-20T16:22:36.393Z,56.04
2019-05-20T16:24:36.304Z,56.27
2019-05-20T16:26:36.291Z,56.48
2019-05-20T16:28:36.257Z,56.57
2019-05-20T16:30:36.307Z,56.37
2019-05-20T16:32:36.223Z,56.27
2019-05-20T16:34:36.209Z,56.07
2019-05-20T16:36:36.247Z,56.07
2019-05-20T16:38:36.155Z,55.66
2019-05-20T16:40:36.159Z,55.64
2019-05-20T16:42:36.158Z,56.15
2019-05-20T16:44:36.086Z,56.04
2019-05-20T16:46:36.096Z,56.04
2019-05-20T16:48:36.054Z,56.27
2019-05-20T16:50:36.025Z,56.57
2019-05-20T16:52:36.017Z,56.60
2019-05-20T16:54:35.994Z,56.10
2019-05-20T16:56:36.018Z,56.70
2019-05-20T16:58:35.954Z,57.14
2019-05-20T17:00:35.918Z,57.64
2019-05-20T17:02:35.915Z,57.34
2019-05-20T17:04:35.913Z,57.54
2019-05-20T17:06:35.859Z,57.23
2019-05-20T17:08:35.903Z,57.36
2019-05-20T17:10:35.808Z,57.46
2019-05-20T17:12:35.803Z,57.16
2019-05-20T17:14:35.797Z,57.59
2019-05-20T17:16:35.760Z,57.29
2019-05-20T17:18:35.714Z,57.29
2019-05-20T17:20:35.827Z,57.29
2019-05-20T17:22:35.717Z,57.59
2019-05-20T17:24:35.655Z,57.69
2019-05-20T17:26:35.651Z,57.59
2019-05-20T17:28:35.677Z,57.69
2019-05-20T17:30:44.963Z,57.59
2019-05-20T17:32:36.618Z,57.39
2019-05-20T17:34:35.562Z,57.69
2019-05-20T17:36:35.551Z,57.79
2019-05-20T17:38:35.545Z,57.49
2019-05-20T17:40:35.505Z,57.59
2019-05-20T17:42:35.548Z,57.59
2019-05-20T17:44:35.505Z,57.39
2019-05-20T17:46:35.511Z,57.59
2019-05-20T17:48:35.453Z,57.39
2019-05-20T17:50:35.426Z,57.72
2019-05-20T17:52:35.367Z,57.29
2019-05-20T17:54:35.334Z,57.59
2019-05-20T17:56:35.347Z,57.42
2019-05-20T17:58:37.347Z,57.29
2019-05-20T18:00:35.316Z,57.39
2019-05-20T18:02:35.269Z,57.69
2019-05-20T18:04:35.225Z,57.18
2019-05-20T18:06:35.219Z,57.21
2019-05-20T18:08:35.204Z,57.01
2019-05-20T18:10:35.164Z,57.52
2019-05-20T18:12:35.150Z,57.31
2019-05-20T18:14:35.140Z,57.21
2019-05-20T18:16:35.107Z,57.11
2019-05-20T18:18:35.082Z,57.31
2019-05-20T18:20:35.116Z,57.52
2019-05-20T18:22:35.041Z,57.11
2019-05-20T18:24:35.047Z,57.52
2019-05-20T18:26:34.997Z,57.31
2019-05-20T18:28:34.997Z,56.91
2019-05-20T18:30:34.959Z,57.62
2019-05-20T18:32:34.956Z,57.92
2019-05-20T18:34:34.897Z,58.12
2019-05-20T18:36:34.969Z,57.65
2019-05-20T18:38:34.900Z,57.82
2019-05-20T18:40:34.847Z,58.02
2019-05-20T18:42:34.853Z,57.62
2019-05-20T18:44:34.792Z,57.95
2019-05-20T18:46:34.779Z,58.05
2019-05-20T18:48:34.768Z,57.95
2019-05-20T18:50:34.751Z,57.95
2019-05-20T18:52:34.737Z,57.95
2019-05-20T18:54:34.697Z,57.44
2019-05-20T18:56:34.694Z,58.05
2019-05-20T18:58:34.693Z,57.34
2019-05-20T19:00:34.619Z,57.54
2019-05-20T19:02:34.678Z,57.65
2019-05-20T19:04:34.578Z,57.54
2019-05-20T19:06:34.554Z,57.54
2019-05-20T19:08:34.584Z,57.54
2019-05-20T19:10:34.574Z,57.34
2019-05-20T19:12:34.527Z,57.78
2019-05-20T19:14:34.506Z,57.57
2019-05-20T19:16:34.483Z,57.98
2019-05-20T19:18:34.461Z,58.07
2019-05-20T19:20:34.417Z,58.07
2019-05-20T19:22:34.394Z,58.07
2019-05-20T19:24:34.395Z,58.07
2019-05-20T19:26:34.334Z,57.98
2019-05-20T19:28:34.313Z,58.18
2019-05-20T19:30:34.324Z,58.18
2019-05-20T19:32:34.276Z,58.28
2019-05-20T19:34:34.255Z,58.38
2019-05-20T19:36:34.242Z,58.41
2019-05-20T19:38:35.012Z,57.98
2019-05-20T19:40:34.221Z,58.31
2019-05-20T19:42:34.206Z,58.20
2019-05-20T19:44:34.192Z,58.00
2019-05-20T19:46:34.146Z,58.11
2019-05-20T19:48:34.145Z,58.11
2019-05-20T19:50:34.085Z,58.11
2019-05-20T19:52:34.068Z,58.00
2019-05-20T19:54:34.100Z,58.11
2019-05-20T19:56:34.056Z,58.11
2019-05-20T19:58:34.031Z,58.20
2019-05-20T20:00:33.976Z,58.00
2019-05-20T20:02:33.952Z,58.11
2019-05-20T20:04:33.996Z,58.31
2019-05-20T20:06:33.905Z,58.31
2019-05-20T20:08:33.938Z,58.11
2019-05-20T20:10:33.893Z,58.20
2019-05-20T20:12:33.848Z,58.00
2019-05-20T20:14:33.868Z,58.03
2019-05-20T20:16:33.803Z,57.93
2019-05-20T20:18:33.830Z,58.23
2019-05-20T20:20:33.760Z,58.23
2019-05-20T20:22:33.770Z,58.03
2019-05-20T20:24:33.718Z,58.31
2019-05-20T20:26:33.700Z,58.34
2019-05-20T20:28:33.677Z,58.13
2019-05-20T20:30:33.643Z,58.34
2019-05-20T20:32:37.834Z,58.34
2019-05-20T20:34:33.596Z,58.34
2019-05-20T20:36:33.605Z,58.23
2019-05-20T20:38:33.607Z,58.23
2019-05-20T20:40:33.543Z,58.23
2019-05-20T20:42:33.686Z,58.23
2019-05-20T20:44:33.665Z,57.93
2019-05-20T20:46:33.543Z,57.93
2019-05-20T20:48:33.532Z,58.34
2019-05-20T20:50:33.509Z,58.03
2019-05-20T20:52:33.462Z,58.13
2019-05-20T20:54:33.421Z,57.93
2019-05-20T20:56:34.273Z,58.34
2019-05-20T20:58:33.348Z,58.36
2019-05-20T21:00:33.331Z,58.26
2019-05-20T21:02:33.290Z,58.16
2019-05-20T21:04:33.283Z,58.34
2019-05-20T21:06:33.282Z,58.13
2019-05-20T21:08:33.229Z,58.34
2019-05-20T21:10:33.212Z,57.93
2019-05-20T21:12:33.200Z,58.26
2019-05-20T21:14:33.176Z,58.06
2019-05-20T21:16:33.154Z,58.06
2019-05-20T21:18:33.146Z,58.16
2019-05-20T21:20:33.106Z,58.97
2019-05-20T21:22:33.092Z,59.27
2019-05-20T21:24:33.050Z,58.97
2019-05-20T21:26:33.045Z,58.97
2019-05-20T21:28:33.017Z,58.76
2019-05-20T21:30:32.997Z,58.56
2019-05-20T21:32:32.967Z,58.97
2019-05-20T21:34:33.025Z,59.20
2019-05-20T21:36:46.594Z,58.87
2019-05-20T21:38:33.909Z,59.20
2019-05-20T21:40:32.909Z,59.30
2019-05-20T21:42:32.887Z,59.30
2019-05-20T21:44:32.866Z,59.10
2019-05-20T21:46:32.819Z,59.30
2019-05-20T21:48:32.789Z,59.20
2019-05-20T21:50:32.777Z,59.20
2019-05-20T21:52:32.769Z,59.20
2019-05-20T21:54:32.728Z,59.30
2019-05-20T21:56:32.769Z,59.30
2019-05-20T21:58:32.701Z,59.20
2019-05-20T22:00:32.681Z,59.41
2019-05-20T22:02:32.648Z,59.20
2019-05-20T22:04:32.613Z,59.43
2019-05-20T22:06:32.621Z,58.72
2019-05-20T22:08:32.580Z,59.26
2019-05-20T22:10:32.563Z,59.23
2019-05-20T22:12:32.538Z,59.46
2019-05-20T22:14:32.516Z,59.23
2019-05-20T22:16:32.489Z,59.36
2019-05-20T22:18:32.478Z,59.46
2019-05-20T22:20:32.498Z,59.46
2019-05-20T22:22:39.473Z,59.26
2019-05-20T22:24:32.396Z,59.36
2019-05-20T22:26:32.374Z,59.79
2019-05-20T22:28:32.379Z,59.18
2019-05-20T22:30:32.336Z,59.59
2019-05-20T22:32:32.345Z,59.59
2019-05-20T22:34:32.338Z,59.05
2019-05-20T22:36:32.275Z,59.79
2019-05-20T22:38:32.260Z,59.99
2019-05-20T22:40:32.242Z,59.59
2019-05-20T22:42:32.206Z,59.48
2019-05-20T22:44:32.191Z,59.39
2019-05-20T22:46:32.205Z,59.39
2019-05-20T22:48:32.162Z,59.79
2019-05-20T22:50:32.147Z,59.46
2019-05-20T22:52:32.107Z,59.59
2019-05-20T22:54:32.089Z,59.59
2019-05-20T22:56:32.060Z,59.46
2019-05-20T22:58:32.044Z,59.46
2019-05-20T23:00:32.023Z,59.05
2019-05-20T23:02:31.987Z,59.16
2019-05-20T23:04:31.982Z,59.46
2019-05-20T23:06:31.958Z,59.66
2019-05-20T23:08:31.942Z,59.66
2019-05-20T23:10:31.954Z,59.36
2019-05-20T23:12:31.876Z,59.36
2019-05-20T23:14:31.868Z,59.18
2019-05-20T23:16:31.862Z,59.48
2019-05-20T23:18:31.830Z,59.16
2019-05-20T23:20:31.814Z,59.36
2019-05-20T23:22:31.813Z,59.26
2019-05-20T23:24:31.767Z,59.46
2019-05-20T23:26:31.788Z,59.46
2019-05-20T23:28:31.738Z,59.66
